createdAt,value
2017-10-21T00:00:00.656Z,1006.51
2017-10-21T00:01:00.617Z,1006.5
2017-10-21T00:02:00.596Z,1006.51
2017-10-21T00:03:00.577Z,1006.53
2017-10-21T00:04:00.558Z,1006.54
2017-10-21T00:05:00.540Z,1006.53
2017-10-21T00:06:00.515Z,1006.5
2017-10-21T00:07:00.498Z,1006.53
2017-10-21T00:08:00.494Z,1006.5
2017-10-21T00:09:00.466Z,1006.54
2017-10-21T00:10:00.442Z,1006.55
2017-10-21T00:11:00.422Z,1006.55
2017-10-21T00:12:00.407Z,1006.55
2017-10-21T00:13:00.385Z,1006.6
2017-10-21T00:14:00.376Z,1006.57
2017-10-21T00:15:00.350Z,1006.58
2017-10-21T00:16:00.327Z,1006.64
2017-10-21T00:17:00.608Z,1006.59
2017-10-21T00:18:00.289Z,1006.6
2017-10-21T00:19:00.277Z,1006.59
2017-10-21T00:20:00.250Z,1006.57
2017-10-21T00:21:00.235Z,1006.54
2017-10-21T00:22:00.215Z,1006.58
2017-10-21T00:23:00.193Z,1006.56
2017-10-21T00:24:00.177Z,1006.52
2017-10-21T00:25:00.156Z,1006.55
2017-10-21T00:26:00.138Z,1006.53
2017-10-21T00:27:00.116Z,1006.55
2017-10-21T00:28:00.098Z,1006.57
2017-10-21T00:29:00.079Z,1006.51
2017-10-21T00:30:00.064Z,1006.54
2017-10-21T00:31:00.047Z,1006.48
2017-10-21T00:32:00.030Z,1006.5
2017-10-21T00:33:00.005Z,1006.46
2017-10-21T00:33:59.983Z,1006.47
2017-10-21T00:34:59.968Z,1006.49
2017-10-21T00:35:59.959Z,1006.53
2017-10-21T00:36:59.931Z,1006.54
2017-10-21T00:37:59.910Z,1006.56
2017-10-21T00:38:59.898Z,1006.55
2017-10-21T00:39:59.870Z,1006.55
2017-10-21T00:40:59.858Z,1006.5
2017-10-21T00:41:59.836Z,1006.53
2017-10-21T00:42:59.829Z,1006.49
2017-10-21T00:43:59.800Z,1006.49
2017-10-21T00:44:59.778Z,1006.52
2017-10-21T00:45:59.758Z,1006.47
2017-10-21T00:46:59.737Z,1006.55
2017-10-21T00:47:59.716Z,1006.48
2017-10-21T00:48:59.698Z,1006.53
2017-10-21T00:49:59.677Z,1006.52
2017-10-21T00:50:59.667Z,1006.51
2017-10-21T00:51:59.643Z,1006.51
2017-10-21T00:52:59.623Z,1006.56
2017-10-21T00:53:59.609Z,1006.62
2017-10-21T00:54:59.590Z,1006.63
2017-10-21T00:55:59.568Z,1006.6
2017-10-21T00:56:59.846Z,1006.61
2017-10-21T00:57:59.526Z,1006.58
2017-10-21T00:58:59.517Z,1006.54
2017-10-21T00:59:59.488Z,1006.55
2017-10-21T01:00:59.467Z,1006.52
2017-10-21T01:01:59.459Z,1006.47
2017-10-21T01:02:59.442Z,1006.45
2017-10-21T01:03:59.411Z,1006.42
2017-10-21T01:04:59.397Z,1006.45
2017-10-21T01:05:59.379Z,1006.44
2017-10-21T01:06:59.355Z,1006.42
2017-10-21T01:07:59.334Z,1006.41
2017-10-21T01:08:59.324Z,1006.42
2017-10-21T01:09:59.316Z,1006.43
2017-10-21T01:10:59.278Z,1006.41
2017-10-21T01:11:59.561Z,1006.43
2017-10-21T01:12:59.242Z,1006.36
2017-10-21T01:13:59.233Z,1006.37
2017-10-21T01:14:59.202Z,1006.32
2017-10-21T01:15:59.187Z,1006.33
2017-10-21T01:16:59.163Z,1006.31
2017-10-21T01:17:59.156Z,1006.29
2017-10-21T01:18:59.127Z,1006.33
2017-10-21T01:19:59.111Z,1006.27
2017-10-21T01:20:59.087Z,1006.3
2017-10-21T01:21:59.076Z,1006.28
2017-10-21T01:22:59.048Z,1006.28
2017-10-21T01:23:59.034Z,1006.23
2017-10-21T01:24:59.017Z,1006.23
2017-10-21T01:25:59.003Z,1006.26
2017-10-21T01:26:58.981Z,1006.27
2017-10-21T01:27:58.958Z,1006.26
2017-10-21T01:28:58.935Z,1006.19
2017-10-21T01:29:58.920Z,1006.21
2017-10-21T01:30:58.897Z,1006.22
2017-10-21T01:31:58.878Z,1006.2
2017-10-21T01:32:58.862Z,1006.2
2017-10-21T01:33:58.842Z,1006.24
2017-10-21T01:34:58.827Z,1006.21
2017-10-21T01:35:58.801Z,1006.21
2017-10-21T01:36:58.789Z,1006.23
2017-10-21T01:37:58.768Z,1006.25
2017-10-21T01:38:58.750Z,1006.25
2017-10-21T01:39:58.728Z,1006.27
2017-10-21T01:40:58.710Z,1006.27
2017-10-21T01:41:58.688Z,1006.29
2017-10-21T01:42:58.667Z,1006.27
2017-10-21T01:43:58.649Z,1006.26
2017-10-21T01:44:58.639Z,1006.27
2017-10-21T01:45:58.621Z,1006.29
2017-10-21T01:46:58.610Z,1006.3
2017-10-21T01:47:58.579Z,1006.29
2017-10-21T01:48:58.558Z,1006.29
2017-10-21T01:49:58.536Z,1006.24
2017-10-21T01:50:58.515Z,1006.3
2017-10-21T01:51:58.505Z,1006.26
2017-10-21T01:52:58.486Z,1006.25
2017-10-21T01:53:58.457Z,1006.25
2017-10-21T01:54:58.438Z,1006.25
2017-10-21T01:55:58.418Z,1006.21
2017-10-21T01:56:58.400Z,1006.22
2017-10-21T01:57:58.380Z,1006.17
2017-10-21T01:58:58.367Z,1006.18
2017-10-21T01:59:58.347Z,1006.12
2017-10-21T02:00:58.323Z,1006.15
2017-10-21T02:01:58.309Z,1006.13
2017-10-21T02:02:58.285Z,1006.16
2017-10-21T02:03:58.263Z,1006.17
2017-10-21T02:04:58.247Z,1006.17
2017-10-21T02:05:58.231Z,1006.17
2017-10-21T02:06:58.209Z,1006.15
2017-10-21T02:07:58.191Z,1006.17
2017-10-21T02:08:58.166Z,1006.16
2017-10-21T02:09:58.150Z,1006.18
2017-10-21T02:10:58.129Z,1006.18
2017-10-21T02:11:58.408Z,1006.15
2017-10-21T02:12:58.088Z,1006.14
2017-10-21T02:13:58.075Z,1006.16
2017-10-21T02:14:58.059Z,1006.19
2017-10-21T02:15:58.037Z,1006.19
2017-10-21T02:16:58.318Z,1006.17
2017-10-21T02:17:57.999Z,1006.16
2017-10-21T02:18:57.980Z,1006.15
2017-10-21T02:19:57.959Z,1006.16
2017-10-21T02:20:57.935Z,1006.13
2017-10-21T02:21:57.921Z,1006.1
2017-10-21T02:22:57.904Z,1006.07
2017-10-21T02:23:57.879Z,1006.15
2017-10-21T02:24:57.858Z,1006.09
2017-10-21T02:25:57.838Z,1006.05
2017-10-21T02:26:57.825Z,1006.08
2017-10-21T02:27:57.798Z,1006.07
2017-10-21T02:28:57.785Z,1006.11
2017-10-21T02:29:57.769Z,1006.05
2017-10-21T02:30:57.750Z,1006.03
2017-10-21T02:31:57.723Z,1006.02
2017-10-21T02:32:57.709Z,1006.04
2017-10-21T02:33:57.690Z,1006.02
2017-10-21T02:34:57.671Z,1006.02
2017-10-21T02:35:57.651Z,1006.03
2017-10-21T02:36:57.631Z,1006.05
2017-10-21T02:37:57.611Z,1006.04
2017-10-21T02:38:57.590Z,1006.02
2017-10-21T02:39:57.571Z,1006.01
2017-10-21T02:40:57.559Z,1005.99
2017-10-21T02:41:57.536Z,1005.99
2017-10-21T02:42:57.519Z,1005.98
2017-10-21T02:43:57.500Z,1005.94
2017-10-21T02:44:57.471Z,1005.94
2017-10-21T02:45:57.459Z,1005.96
2017-10-21T02:46:57.435Z,1005.93
2017-10-21T02:47:57.413Z,1005.9
2017-10-21T02:48:57.397Z,1005.87
2017-10-21T02:49:57.387Z,1005.86
2017-10-21T02:50:57.359Z,1005.88
2017-10-21T02:51:57.340Z,1005.86
2017-10-21T02:52:57.319Z,1005.86
2017-10-21T02:53:57.304Z,1005.91
2017-10-21T02:54:57.280Z,1005.88
2017-10-21T02:55:57.258Z,1005.86
2017-10-21T02:56:57.242Z,1005.84
2017-10-21T02:57:57.219Z,1005.81
2017-10-21T02:58:57.199Z,1005.77
2017-10-21T02:59:57.179Z,1005.79
2017-10-21T03:00:57.159Z,1005.77
2017-10-21T03:01:57.138Z,1005.73
2017-10-21T03:02:57.119Z,1005.7
2017-10-21T03:03:57.100Z,1005.68
2017-10-21T03:04:57.082Z,1005.67
2017-10-21T03:05:57.058Z,1005.66
2017-10-21T03:06:57.046Z,1005.64
2017-10-21T03:07:57.028Z,1005.61
2017-10-21T03:08:57.003Z,1005.59
2017-10-21T03:09:56.981Z,1005.56
2017-10-21T03:10:56.964Z,1005.6
2017-10-21T03:11:56.950Z,1005.55
2017-10-21T03:12:56.932Z,1005.58
2017-10-21T03:13:56.907Z,1005.57
2017-10-21T03:14:56.888Z,1005.62
2017-10-21T03:15:56.869Z,1005.63
2017-10-21T03:16:56.850Z,1005.63
2017-10-21T03:17:56.822Z,1005.62
2017-10-21T03:18:56.813Z,1005.57
2017-10-21T03:19:56.795Z,1005.57
2017-10-21T03:20:56.766Z,1005.55
2017-10-21T03:21:56.743Z,1005.53
2017-10-21T03:22:56.726Z,1005.51
2017-10-21T03:23:56.708Z,1005.49
2017-10-21T03:24:56.690Z,1005.49
2017-10-21T03:25:56.675Z,1005.43
2017-10-21T03:26:56.649Z,1005.48
2017-10-21T03:27:56.629Z,1005.47
2017-10-21T03:28:56.607Z,1005.51
2017-10-21T03:29:56.590Z,1005.55
2017-10-21T03:30:56.568Z,1005.55
2017-10-21T03:31:56.549Z,1005.55
2017-10-21T03:32:56.529Z,1005.52
2017-10-21T03:33:56.509Z,1005.53
2017-10-21T03:34:56.494Z,1005.54
2017-10-21T03:35:56.472Z,1005.55
2017-10-21T03:36:56.452Z,1005.55
2017-10-21T03:37:56.431Z,1005.61
2017-10-21T03:38:56.417Z,1005.55
2017-10-21T03:39:56.393Z,1005.55
2017-10-21T03:40:56.371Z,1005.54
2017-10-21T03:41:56.350Z,1005.5
2017-10-21T03:42:56.333Z,1005.48
2017-10-21T03:43:56.311Z,1005.45
2017-10-21T03:44:56.291Z,1005.43
2017-10-21T03:45:56.275Z,1005.41
2017-10-21T03:46:56.250Z,1005.37
2017-10-21T03:47:56.235Z,1005.36
2017-10-21T03:48:56.210Z,1005.36
2017-10-21T03:49:56.196Z,1005.3
2017-10-21T03:50:56.172Z,1005.31
2017-10-21T03:51:56.156Z,1005.3
2017-10-21T03:52:56.137Z,1005.29
2017-10-21T03:53:56.126Z,1005.34
2017-10-21T03:54:56.096Z,1005.34
2017-10-21T03:55:56.077Z,1005.32
2017-10-21T03:56:56.054Z,1005.3
2017-10-21T03:57:56.037Z,1005.28
2017-10-21T03:58:56.015Z,1005.32
2017-10-21T03:59:55.998Z,1005.3
2017-10-21T04:00:55.975Z,1005.31
2017-10-21T04:01:55.959Z,1005.32
2017-10-21T04:02:55.934Z,1005.32
2017-10-21T04:03:55.922Z,1005.36
2017-10-21T04:04:55.896Z,1005.32
2017-10-21T04:05:55.880Z,1005.28
2017-10-21T04:06:55.863Z,1005.29
2017-10-21T04:07:55.843Z,1005.3
2017-10-21T04:08:55.817Z,1005.32
2017-10-21T04:09:55.803Z,1005.32
2017-10-21T04:10:55.787Z,1005.32
2017-10-21T04:11:55.762Z,1005.27
2017-10-21T04:12:55.742Z,1005.31
2017-10-21T04:13:55.724Z,1005.29
2017-10-21T04:14:55.699Z,1005.32
2017-10-21T04:15:55.678Z,1005.32
2017-10-21T04:16:55.661Z,1005.31
2017-10-21T04:17:55.643Z,1005.32
2017-10-21T04:18:55.622Z,1005.29
2017-10-21T04:19:55.606Z,1005.34
2017-10-21T04:20:55.580Z,1005.31
2017-10-21T04:21:55.562Z,1005.32
2017-10-21T04:22:55.542Z,1005.26
2017-10-21T04:23:55.526Z,1005.24
2017-10-21T04:24:55.499Z,1005.23
2017-10-21T04:25:55.478Z,1005.19
2017-10-21T04:26:55.462Z,1005.17
2017-10-21T04:27:55.442Z,1005.18
2017-10-21T04:28:55.423Z,1005.18
2017-10-21T04:29:55.407Z,1005.22
2017-10-21T04:30:55.393Z,1005.2
2017-10-21T04:31:55.362Z,1005.26
2017-10-21T04:32:55.350Z,1005.23
2017-10-21T04:33:55.322Z,1005.19
2017-10-21T04:34:55.304Z,1005.15
2017-10-21T04:35:55.295Z,1005.17
2017-10-21T04:36:55.262Z,1005.21
2017-10-21T04:37:55.255Z,1005.22
2017-10-21T04:38:55.224Z,1005.22
2017-10-21T04:39:55.203Z,1005.23
2017-10-21T04:40:55.184Z,1005.23
2017-10-21T04:41:55.163Z,1005.29
2017-10-21T04:42:55.145Z,1005.28
2017-10-21T04:43:55.124Z,1005.3
2017-10-21T04:44:55.103Z,1005.25
2017-10-21T04:45:55.084Z,1005.26
2017-10-21T04:46:55.064Z,1005.18
2017-10-21T04:47:55.050Z,1005.17
2017-10-21T04:48:55.026Z,1005.12
2017-10-21T04:49:55.003Z,1005.18
2017-10-21T04:50:54.990Z,1005.21
2017-10-21T04:51:54.974Z,1005.17
2017-10-21T04:52:54.954Z,1005.16
2017-10-21T04:53:54.927Z,1005.18
2017-10-21T04:54:54.915Z,1005.14
2017-10-21T04:55:54.885Z,1005.19
2017-10-21T04:56:54.867Z,1005.24
2017-10-21T04:57:55.155Z,1005.21
2017-10-21T04:58:54.828Z,1005.25
2017-10-21T04:59:54.804Z,1005.19
2017-10-21T05:00:54.787Z,1005.19
2017-10-21T05:01:54.775Z,1005.17
2017-10-21T05:02:54.754Z,1005.15
2017-10-21T05:03:54.732Z,1005.18
2017-10-21T05:04:54.710Z,1005.2
2017-10-21T05:05:54.687Z,1005.18
2017-10-21T05:06:54.674Z,1005.18
2017-10-21T05:07:54.647Z,1005.2
2017-10-21T05:08:54.632Z,1005.19
2017-10-21T05:09:54.610Z,1005.16
2017-10-21T05:10:54.589Z,1005.15
2017-10-21T05:11:54.574Z,1005.14
2017-10-21T05:12:54.553Z,1005.16
2017-10-21T05:13:54.528Z,1005.11
2017-10-21T05:14:54.513Z,1005.12
2017-10-21T05:15:54.490Z,1005.1
2017-10-21T05:16:54.469Z,1005.12
2017-10-21T05:17:54.455Z,1005.03
2017-10-21T05:18:54.450Z,1005.09
2017-10-21T05:19:54.408Z,1005.11
2017-10-21T05:20:54.392Z,1005
2017-10-21T05:21:54.375Z,1004.98
2017-10-21T05:22:54.353Z,1004.95
2017-10-21T05:23:54.329Z,1004.94
2017-10-21T05:24:54.310Z,1004.91
2017-10-21T05:25:54.292Z,1004.87
2017-10-21T05:26:54.271Z,1004.84
2017-10-21T05:27:54.253Z,1004.84
2017-10-21T05:28:54.234Z,1004.86
2017-10-21T05:29:54.214Z,1004.81
2017-10-21T05:30:54.203Z,1004.77
2017-10-21T05:31:54.173Z,1004.78
2017-10-21T05:32:54.152Z,1004.85
2017-10-21T05:33:54.134Z,1004.81
2017-10-21T05:34:54.115Z,1004.85
2017-10-21T05:35:54.091Z,1004.86
2017-10-21T05:36:54.073Z,1004.87
2017-10-21T05:37:54.052Z,1004.95
2017-10-21T05:38:54.032Z,1004.94
2017-10-21T05:39:54.013Z,1004.95
2017-10-21T05:40:54.003Z,1004.97
2017-10-21T05:41:53.972Z,1004.93
2017-10-21T05:42:53.951Z,1004.96
2017-10-21T05:43:53.931Z,1004.94
2017-10-21T05:44:53.953Z,1004.95
2017-10-21T05:45:53.908Z,1004.89
2017-10-21T05:46:53.875Z,1004.9
2017-10-21T05:47:53.853Z,1004.92
2017-10-21T05:48:53.836Z,1004.96
2017-10-21T05:49:53.818Z,1004.96
2017-10-21T05:50:53.802Z,1004.96
2017-10-21T05:51:53.778Z,1004.95
2017-10-21T05:52:53.758Z,1004.92
2017-10-21T05:53:53.744Z,1004.94
2017-10-21T05:54:53.722Z,1004.94
2017-10-21T05:55:53.694Z,1004.96
2017-10-21T05:56:53.682Z,1004.96
2017-10-21T05:57:53.661Z,1004.97
2017-10-21T05:58:53.638Z,1004.9
2017-10-21T05:59:53.622Z,1004.89
2017-10-21T06:00:53.601Z,1004.93
2017-10-21T06:01:53.582Z,1004.89
2017-10-21T06:02:53.561Z,1004.9
2017-10-21T06:03:53.542Z,1004.92
2017-10-21T06:04:53.524Z,1004.92
2017-10-21T06:05:53.500Z,1004.95
2017-10-21T06:06:53.532Z,1004.95
2017-10-21T06:07:53.464Z,1004.91
2017-10-21T06:08:53.443Z,1004.91
2017-10-21T06:09:53.422Z,1004.92
2017-10-21T06:10:53.404Z,1004.9
2017-10-21T06:11:53.382Z,1004.91
2017-10-21T06:12:53.361Z,1004.85
2017-10-21T06:13:53.344Z,1004.83
2017-10-21T06:14:53.324Z,1004.81
2017-10-21T06:15:53.308Z,1004.83
2017-10-21T06:16:53.287Z,1004.83
2017-10-21T06:17:53.260Z,1004.83
2017-10-21T06:18:53.241Z,1004.77
2017-10-21T06:19:53.234Z,1004.73
2017-10-21T06:20:53.201Z,1004.75
2017-10-21T06:21:53.196Z,1004.74
2017-10-21T06:22:53.164Z,1004.75
2017-10-21T06:23:53.146Z,1004.76
2017-10-21T06:24:53.128Z,1004.77
2017-10-21T06:25:53.101Z,1004.77
2017-10-21T06:26:53.081Z,1004.8
2017-10-21T06:27:53.063Z,1004.8
2017-10-21T06:28:53.044Z,1004.82
2017-10-21T06:29:53.020Z,1004.84
2017-10-21T06:30:53.001Z,1004.84
2017-10-21T06:31:52.981Z,1004.84
2017-10-21T06:32:52.973Z,1004.89
2017-10-21T06:33:52.941Z,1004.85
2017-10-21T06:34:52.926Z,1004.84
2017-10-21T06:35:52.908Z,1004.78
2017-10-21T06:36:52.880Z,1004.81
2017-10-21T06:37:52.868Z,1004.84
2017-10-21T06:38:52.846Z,1004.86
2017-10-21T06:39:52.824Z,1004.92
2017-10-21T06:40:52.812Z,1004.88
2017-10-21T06:41:52.790Z,1004.86
2017-10-21T06:42:52.770Z,1004.88
2017-10-21T06:43:52.751Z,1004.88
2017-10-21T06:44:52.735Z,1004.82
2017-10-21T06:45:52.713Z,1004.76
2017-10-21T06:46:52.692Z,1004.78
2017-10-21T06:47:52.674Z,1004.72
2017-10-21T06:48:52.651Z,1004.73
2017-10-21T06:49:52.649Z,1004.77
2017-10-21T06:50:52.631Z,1004.74
2017-10-21T06:51:52.590Z,1004.75
2017-10-21T06:52:52.575Z,1004.76
2017-10-21T06:53:52.559Z,1004.78
2017-10-21T06:54:52.541Z,1004.86
2017-10-21T06:55:52.520Z,1004.81
2017-10-21T06:56:52.493Z,1004.92
2017-10-21T06:57:52.472Z,1004.85
2017-10-21T06:58:52.464Z,1004.85
2017-10-21T06:59:52.436Z,1004.81
2017-10-21T07:00:52.418Z,1004.85
2017-10-21T07:01:52.399Z,1004.81
2017-10-21T07:02:52.380Z,1004.82
2017-10-21T07:03:52.360Z,1004.79
2017-10-21T07:04:52.592Z,1004.66
2017-10-21T07:05:52.331Z,1004.61
2017-10-21T07:06:52.312Z,1004.6
2017-10-21T07:07:52.293Z,1004.56
2017-10-21T07:08:52.271Z,1004.68
2017-10-21T07:09:52.248Z,1004.73
2017-10-21T07:10:52.228Z,1004.84
2017-10-21T07:11:52.210Z,1004.83
2017-10-21T07:12:52.205Z,1004.96
2017-10-21T07:13:52.174Z,1004.86
2017-10-21T07:14:52.150Z,1004.82
2017-10-21T07:15:52.131Z,1004.8
2017-10-21T07:16:52.121Z,1004.84
2017-10-21T07:17:52.100Z,1004.84
2017-10-21T07:18:52.073Z,1004.84
2017-10-21T07:19:52.056Z,1004.9
2017-10-21T07:20:52.044Z,1004.85
2017-10-21T07:21:52.016Z,1004.81
2017-10-21T07:22:51.999Z,1004.8
2017-10-21T07:23:51.980Z,1004.78
2017-10-21T07:24:51.965Z,1004.75
2017-10-21T07:25:51.950Z,1004.76
2017-10-21T07:26:51.930Z,1004.72
2017-10-21T07:27:51.910Z,1004.77
2017-10-21T07:28:51.884Z,1004.75
2017-10-21T07:29:51.867Z,1004.67
2017-10-21T07:30:51.852Z,1004.63
2017-10-21T07:31:51.831Z,1004.71
2017-10-21T07:32:51.806Z,1004.69
2017-10-21T07:33:51.788Z,1004.68
2017-10-21T07:34:51.769Z,1004.72
2017-10-21T07:35:51.749Z,1004.71
2017-10-21T07:36:51.730Z,1004.68
2017-10-21T07:37:51.712Z,1004.67
2017-10-21T07:38:51.691Z,1004.69
2017-10-21T07:39:51.670Z,1004.71
2017-10-21T07:40:51.660Z,1004.72
2017-10-21T07:41:51.635Z,1004.7
2017-10-21T07:42:51.619Z,1004.75
2017-10-21T07:43:51.600Z,1004.71
2017-10-21T07:44:51.581Z,1004.66
2017-10-21T07:45:51.554Z,1004.69
2017-10-21T07:46:51.538Z,1004.68
2017-10-21T07:47:51.517Z,1004.63
2017-10-21T07:48:51.499Z,1004.65
2017-10-21T07:49:51.473Z,1004.6
2017-10-21T07:50:51.461Z,1004.62
2017-10-21T07:51:51.435Z,1004.64
2017-10-21T07:52:51.420Z,1004.68
2017-10-21T07:53:51.395Z,1004.68
2017-10-21T07:54:51.378Z,1004.74
2017-10-21T07:55:51.359Z,1004.76
2017-10-21T07:56:51.337Z,1004.72
2017-10-21T07:57:51.316Z,1004.71
2017-10-21T07:58:51.300Z,1004.76
2017-10-21T07:59:51.279Z,1004.77
2017-10-21T08:00:51.264Z,1004.71
2017-10-21T08:01:51.246Z,1004.69
2017-10-21T08:02:51.220Z,1004.67
2017-10-21T08:03:51.205Z,1004.66
2017-10-21T08:04:51.183Z,1004.65
2017-10-21T08:05:51.165Z,1004.63
2017-10-21T08:06:51.144Z,1004.65
2017-10-21T08:07:51.129Z,1004.65
2017-10-21T08:08:51.106Z,1004.67
2017-10-21T08:09:51.085Z,1004.64
2017-10-21T08:10:51.065Z,1004.67
2017-10-21T08:11:51.046Z,1004.68
2017-10-21T08:12:51.025Z,1004.69
2017-10-21T08:13:51.008Z,1004.68
2017-10-21T08:14:50.991Z,1004.63
2017-10-21T08:15:50.972Z,1004.54
2017-10-21T08:16:50.951Z,1004.57
2017-10-21T08:17:50.930Z,1004.65
2017-10-21T08:18:50.909Z,1004.61
2017-10-21T08:19:50.889Z,1004.61
2017-10-21T08:20:50.872Z,1004.6
2017-10-21T08:21:50.859Z,1004.64
2017-10-21T08:22:50.840Z,1004.57
2017-10-21T08:23:50.820Z,1004.55
2017-10-21T08:24:50.818Z,1004.53
2017-10-21T08:25:50.777Z,1004.5
2017-10-21T08:26:50.759Z,1004.5
2017-10-21T08:27:50.743Z,1004.49
2017-10-21T08:28:50.720Z,1004.46
2017-10-21T08:29:50.701Z,1004.48
2017-10-21T08:30:50.676Z,1004.52
2017-10-21T08:31:50.661Z,1004.46
2017-10-21T08:32:50.640Z,1004.5
2017-10-21T08:33:50.617Z,1004.51
2017-10-21T08:34:50.600Z,1004.5
2017-10-21T08:35:50.586Z,1004.52
2017-10-21T08:36:50.560Z,1004.54
2017-10-21T08:37:50.556Z,1004.51
2017-10-21T08:38:50.531Z,1004.56
2017-10-21T08:39:50.507Z,1004.5
2017-10-21T08:40:50.487Z,1004.57
2017-10-21T08:41:50.470Z,1004.59
2017-10-21T08:42:50.447Z,1004.59
2017-10-21T08:43:50.428Z,1004.56
2017-10-21T08:44:50.410Z,1004.6
2017-10-21T08:45:50.391Z,1004.59
2017-10-21T08:46:50.365Z,1004.6
2017-10-21T08:47:50.348Z,1004.58
2017-10-21T08:48:50.329Z,1004.57
2017-10-21T08:49:50.322Z,1004.59
2017-10-21T08:50:50.303Z,1004.6
2017-10-21T08:51:50.284Z,1004.62
2017-10-21T08:52:50.254Z,1004.63
2017-10-21T08:53:50.261Z,1004.6
2017-10-21T08:54:50.211Z,1004.6
2017-10-21T08:55:50.210Z,1004.63
2017-10-21T08:56:50.175Z,1004.58
2017-10-21T08:57:50.155Z,1004.61
2017-10-21T08:58:50.142Z,1004.65
2017-10-21T08:59:50.112Z,1004.61
2017-10-21T09:00:50.090Z,1004.59
2017-10-21T09:01:50.075Z,1004.6
2017-10-21T09:02:50.067Z,1004.59
2017-10-21T09:03:50.034Z,1004.65
2017-10-21T09:04:50.023Z,1004.63
2017-10-21T09:05:50.002Z,1004.6
2017-10-21T09:06:49.981Z,1004.66
2017-10-21T09:07:49.960Z,1004.63
2017-10-21T09:08:49.938Z,1004.66
2017-10-21T09:09:49.918Z,1004.65
2017-10-21T09:10:49.904Z,1004.61
2017-10-21T09:11:49.884Z,1004.6
2017-10-21T09:12:49.872Z,1004.6
2017-10-21T09:13:49.842Z,1004.59
2017-10-21T09:14:49.825Z,1004.63
2017-10-21T09:15:49.803Z,1004.58
2017-10-21T09:16:49.789Z,1004.58
2017-10-21T09:17:49.773Z,1004.61
2017-10-21T09:18:49.748Z,1004.56
2017-10-21T09:19:49.723Z,1004.56
2017-10-21T09:20:49.700Z,1004.6
2017-10-21T09:21:49.688Z,1004.56
2017-10-21T09:22:49.662Z,1004.52
2017-10-21T09:23:49.640Z,1004.48
2017-10-21T09:24:49.626Z,1004.47
2017-10-21T09:25:49.603Z,1004.45
2017-10-21T09:26:49.583Z,1004.46
2017-10-21T09:27:49.575Z,1004.43
2017-10-21T09:28:49.555Z,1004.44
2017-10-21T09:29:49.523Z,1004.43
2017-10-21T09:30:49.507Z,1004.44
2017-10-21T09:31:49.492Z,1004.43
2017-10-21T09:32:49.466Z,1004.42
2017-10-21T09:33:49.451Z,1004.37
2017-10-21T09:34:49.433Z,1004.34
2017-10-21T09:35:49.436Z,1004.36
2017-10-21T09:36:49.392Z,1004.32
2017-10-21T09:37:49.375Z,1004.34
2017-10-21T09:38:49.355Z,1004.29
2017-10-21T09:39:49.337Z,1004.32
2017-10-21T09:40:49.309Z,1004.31
2017-10-21T09:41:49.291Z,1004.33
2017-10-21T09:42:49.273Z,1004.29
2017-10-21T09:43:49.255Z,1004.29
2017-10-21T09:44:49.230Z,1004.26
2017-10-21T09:45:49.213Z,1004.27
2017-10-21T09:46:49.211Z,1004.26
2017-10-21T09:47:49.185Z,1004.23
2017-10-21T09:48:49.150Z,1004.26
2017-10-21T09:49:49.132Z,1004.29
2017-10-21T09:50:49.113Z,1004.22
2017-10-21T09:51:49.094Z,1004.23
2017-10-21T09:52:49.076Z,1004.27
2017-10-21T09:53:49.057Z,1004.3
2017-10-21T09:54:49.042Z,1004.3
2017-10-21T09:55:49.022Z,1004.34
2017-10-21T09:56:49.004Z,1004.35
2017-10-21T09:57:48.981Z,1004.33
2017-10-21T09:58:48.970Z,1004.32
2017-10-21T09:59:48.941Z,1004.33
2017-10-21T10:00:48.922Z,1004.36
2017-10-21T10:01:48.899Z,1004.32
2017-10-21T10:02:48.879Z,1004.33
2017-10-21T10:03:48.865Z,1004.32
2017-10-21T10:04:48.844Z,1004.24
2017-10-21T10:05:48.824Z,1004.22
2017-10-21T10:06:48.802Z,1004.22
2017-10-21T10:07:48.792Z,1004.23
2017-10-21T10:08:48.769Z,1004.24
2017-10-21T10:09:48.751Z,1004.26
2017-10-21T10:10:48.726Z,1004.25
2017-10-21T10:11:48.709Z,1004.27
2017-10-21T10:12:48.684Z,1004.29
2017-10-21T10:13:48.678Z,1004.28
2017-10-21T10:14:48.651Z,1004.28
2017-10-21T10:15:48.639Z,1004.27
2017-10-21T10:16:48.612Z,1004.34
2017-10-21T10:17:48.590Z,1004.31
2017-10-21T10:18:48.579Z,1004.3
2017-10-21T10:19:48.555Z,1004.31
2017-10-21T10:20:48.791Z,1004.28
2017-10-21T10:21:48.520Z,1004.28
2017-10-21T10:22:48.498Z,1004.24
2017-10-21T10:23:48.482Z,1004.27
2017-10-21T10:24:48.470Z,1004.34
2017-10-21T10:25:48.436Z,1004.31
2017-10-21T10:26:48.423Z,1004.31
2017-10-21T10:27:48.402Z,1004.28
2017-10-21T10:28:48.395Z,1004.27
2017-10-21T10:29:48.360Z,1004.25
2017-10-21T10:30:48.342Z,1004.2
2017-10-21T10:31:48.325Z,1004.23
2017-10-21T10:32:48.302Z,1004.25
2017-10-21T10:33:48.281Z,1004.28
2017-10-21T10:34:48.268Z,1004.26
2017-10-21T10:35:48.250Z,1004.27
2017-10-21T10:36:48.228Z,1004.33
2017-10-21T10:37:48.213Z,1004.33
2017-10-21T10:38:48.192Z,1004.29
2017-10-21T10:39:48.174Z,1004.26
2017-10-21T10:40:48.153Z,1004.28
2017-10-21T10:41:48.135Z,1004.3
2017-10-21T10:42:48.118Z,1004.29
2017-10-21T10:43:48.099Z,1004.34
2017-10-21T10:44:48.076Z,1004.29
2017-10-21T10:45:48.069Z,1004.31
2017-10-21T10:46:48.043Z,1004.31
2017-10-21T10:47:48.026Z,1004.32
2017-10-21T10:48:48.001Z,1004.36
2017-10-21T10:49:47.985Z,1004.34
2017-10-21T10:50:47.965Z,1004.34
2017-10-21T10:51:47.948Z,1004.34
2017-10-21T10:52:47.923Z,1004.36
2017-10-21T10:53:47.914Z,1004.35
2017-10-21T10:54:47.889Z,1004.34
2017-10-21T10:55:47.874Z,1004.34
2017-10-21T10:56:47.852Z,1004.31
2017-10-21T10:57:47.832Z,1004.36
2017-10-21T10:58:47.815Z,1004.31
2017-10-21T10:59:47.803Z,1004.27
2017-10-21T11:00:47.774Z,1004.28
2017-10-21T11:01:47.765Z,1004.27
2017-10-21T11:02:47.748Z,1004.26
2017-10-21T11:03:47.735Z,1004.27
2017-10-21T11:04:47.706Z,1004.26
2017-10-21T11:05:47.682Z,1004.25
2017-10-21T11:06:47.662Z,1004.29
2017-10-21T11:07:47.650Z,1004.22
2017-10-21T11:08:47.625Z,1004.23
2017-10-21T11:09:47.614Z,1004.22
2017-10-21T11:10:47.588Z,1004.18
2017-10-21T11:11:47.575Z,1004.15
2017-10-21T11:12:47.550Z,1004.19
2017-10-21T11:13:47.544Z,1004.18
2017-10-21T11:14:47.517Z,1004.15
2017-10-21T11:15:47.496Z,1004.12
2017-10-21T11:16:47.481Z,1004.1
2017-10-21T11:17:47.464Z,1004.05
2017-10-21T11:18:47.439Z,1004.04
2017-10-21T11:19:47.422Z,1004.05
2017-10-21T11:20:47.402Z,1003.98
2017-10-21T11:21:47.390Z,1004.01
2017-10-21T11:22:47.375Z,1003.95
2017-10-21T11:23:47.347Z,1003.96
2017-10-21T11:24:47.330Z,1003.98
2017-10-21T11:25:47.312Z,1003.92
2017-10-21T11:26:47.294Z,1003.94
2017-10-21T11:27:47.272Z,1003.92
2017-10-21T11:28:47.253Z,1003.96
2017-10-21T11:29:47.236Z,1003.93
2017-10-21T11:30:47.219Z,1003.95
2017-10-21T11:31:47.198Z,1003.97
2017-10-21T11:32:47.180Z,1003.99
2017-10-21T11:33:47.166Z,1003.97
2017-10-21T11:34:47.139Z,1003.98
2017-10-21T11:35:47.130Z,1004.01
2017-10-21T11:36:47.104Z,1004.01
2017-10-21T11:37:47.092Z,1004.03
2017-10-21T11:38:47.072Z,1004.05
2017-10-21T11:39:47.050Z,1004.02
2017-10-21T11:40:47.034Z,1004.04
2017-10-21T11:41:47.011Z,1004.05
2017-10-21T11:42:47.005Z,1004.01
2017-10-21T11:43:46.977Z,1004.06
2017-10-21T11:44:46.964Z,1004.03
2017-10-21T11:45:46.941Z,1004.06
2017-10-21T11:46:46.921Z,1004.1
2017-10-21T11:47:46.913Z,1004.11
2017-10-21T11:48:46.887Z,1004.11
2017-10-21T11:49:46.870Z,1004.05
2017-10-21T11:50:46.848Z,1004.07
2017-10-21T11:51:46.831Z,1004.08
2017-10-21T11:52:46.820Z,1004.07
2017-10-21T11:53:46.793Z,1004.07
2017-10-21T11:54:46.782Z,1004.08
2017-10-21T11:55:46.758Z,1004.08
2017-10-21T11:56:46.754Z,1004.03
2017-10-21T11:57:46.725Z,1004.08
2017-10-21T11:58:46.707Z,1004.02
2017-10-21T11:59:46.684Z,1004
2017-10-21T12:00:46.673Z,1004
2017-10-21T12:01:46.649Z,1004.07
2017-10-21T12:02:46.633Z,1004.03
2017-10-21T12:03:46.619Z,1004.02
2017-10-21T12:04:46.596Z,1004.05
2017-10-21T12:05:46.578Z,1004.1
2017-10-21T12:06:46.561Z,1004.03
2017-10-21T12:07:46.543Z,1004